sensor_id;sensor_type;location;lat;lon;timestamp;P1;durP1;ratioP1;P2;durP2;ratioP2
2161;SDS011;1087;50.226;8.682;2023-02-12T00:02:23;48.63;;;26.30;;
2161;SDS011;1087;50.226;8.682;2023-02-12T00:04:49;43.20;;;24.73;;
2161;SDS011;1087;50.226;8.682;2023-02-12T00:07:14;47.23;;;26.30;;
2161;SDS011;1087;50.226;8.682;2023-02-12T00:09:40;42.77;;;25.87;;
2161;SDS011;1087;50.226;8.682;2023-02-12T00:12:06;48.50;;;29.33;;
2161;SDS011;1087;50.226;8.682;2023-02-12T00:14:31;50.67;;;25.60;;
2161;SDS011;1087;50.226;8.682;2023-02-12T00:16:58;49.77;;;27.50;;
2161;SDS011;1087;50.226;8.682;2023-02-12T00:19:24;46.70;;;29.40;;
2161;SDS011;1087;50.226;8.682;2023-02-12T00:21:49;44.03;;;26.67;;
2161;SDS011;1087;50.226;8.682;2023-02-12T00:24:15;44.73;;;27.37;;
2161;SDS011;1087;50.226;8.682;2023-02-12T00:26:41;45.30;;;27.77;;
2161;SDS011;1087;50.226;8.682;2023-02-12T00:29:06;48.43;;;28.90;;
2161;SDS011;1087;50.226;8.682;2023-02-12T00:31:32;47.37;;;26.10;;
2161;SDS011;1087;50.226;8.682;2023-02-12T00:33:57;43.43;;;26.97;;
2161;SDS011;1087;50.226;8.682;2023-02-12T00:36:24;41.93;;;27.00;;
2161;SDS011;1087;50.226;8.682;2023-02-12T00:38:52;42.87;;;29.03;;
2161;SDS011;1087;50.226;8.682;2023-02-12T00:41:19;38.60;;;27.30;;
2161;SDS011;1087;50.226;8.682;2023-02-12T00:43:45;39.20;;;27.93;;
2161;SDS011;1087;50.226;8.682;2023-02-12T00:46:11;42.17;;;29.60;;
2161;SDS011;1087;50.226;8.682;2023-02-12T00:48:37;42.90;;;28.37;;
2161;SDS011;1087;50.226;8.682;2023-02-12T00:51:02;42.83;;;29.13;;
2161;SDS011;1087;50.226;8.682;2023-02-12T00:53:29;43.50;;;28.97;;
2161;SDS011;1087;50.226;8.682;2023-02-12T00:55:54;43.80;;;29.97;;
2161;SDS011;1087;50.226;8.682;2023-02-12T00:58:21;42.17;;;28.77;;
2161;SDS011;1087;50.226;8.682;2023-02-12T01:00:46;39.77;;;27.60;;
2161;SDS011;1087;50.226;8.682;2023-02-12T01:03:12;40.13;;;26.73;;
2161;SDS011;1087;50.226;8.682;2023-02-12T01:05:38;45.17;;;30.57;;
2161;SDS011;1087;50.226;8.682;2023-02-12T01:08:03;41.33;;;28.10;;
2161;SDS011;1087;50.226;8.682;2023-02-12T01:10:29;45.63;;;29.10;;
2161;SDS011;1087;50.226;8.682;2023-02-12T01:12:55;43.63;;;27.60;;
2161;SDS011;1087;50.226;8.682;2023-02-12T01:15:21;41.07;;;27.37;;
2161;SDS011;1087;50.226;8.682;2023-02-12T01:17:47;41.57;;;25.50;;
2161;SDS011;1087;50.226;8.682;2023-02-12T01:20:15;43.17;;;28.23;;
2161;SDS011;1087;50.226;8.682;2023-02-12T01:22:43;46.73;;;28.30;;
2161;SDS011;1087;50.226;8.682;2023-02-12T01:25:09;42.83;;;27.83;;
2161;SDS011;1087;50.226;8.682;2023-02-12T01:27:34;37.97;;;26.97;;
2161;SDS011;1087;50.226;8.682;2023-02-12T01:30:00;45.17;;;29.27;;
2161;SDS011;1087;50.226;8.682;2023-02-12T01:32:27;46.40;;;27.70;;
2161;SDS011;1087;50.226;8.682;2023-02-12T01:34:52;42.50;;;28.60;;
2161;SDS011;1087;50.226;8.682;2023-02-12T01:37:18;45.07;;;29.70;;
2161;SDS011;1087;50.226;8.682;2023-02-12T01:39:43;45.40;;;29.70;;
2161;SDS011;1087;50.226;8.682;2023-02-12T01:42:11;46.33;;;29.70;;
2161;SDS011;1087;50.226;8.682;2023-02-12T01:44:42;43.80;;;30.67;;
2161;SDS011;1087;50.226;8.682;2023-02-12T01:47:27;42.80;;;29.57;;
2161;SDS011;1087;50.226;8.682;2023-02-12T01:49:52;44.83;;;27.90;;
2161;SDS011;1087;50.226;8.682;2023-02-12T01:52:19;42.20;;;28.93;;
2161;SDS011;1087;50.226;8.682;2023-02-12T01:54:52;47.57;;;28.97;;
2161;SDS011;1087;50.226;8.682;2023-02-12T01:57:19;43.33;;;28.30;;
2161;SDS011;1087;50.226;8.682;2023-02-12T01:59:46;41.57;;;28.50;;
2161;SDS011;1087;50.226;8.682;2023-02-12T02:02:15;38.10;;;28.87;;
2161;SDS011;1087;50.226;8.682;2023-02-12T02:04:48;45.93;;;31.23;;
2161;SDS011;1087;50.226;8.682;2023-02-12T02:07:16;42.57;;;27.87;;
2161;SDS011;1087;50.226;8.682;2023-02-12T02:09:42;40.67;;;29.40;;
2161;SDS011;1087;50.226;8.682;2023-02-12T02:12:08;41.43;;;27.57;;
2161;SDS011;1087;50.226;8.682;2023-02-12T02:14:53;43.77;;;29.17;;
2161;SDS011;1087;50.226;8.682;2023-02-12T02:17:23;39.47;;;27.93;;
2161;SDS011;1087;50.226;8.682;2023-02-12T02:22:49;43.20;;;28.13;;
2161;SDS011;1087;50.226;8.682;2023-02-12T02:25:51;44.60;;;29.63;;
2161;SDS011;1087;50.226;8.682;2023-02-12T02:39:27;49.13;;;34.07;;
2161;SDS011;1087;50.226;8.682;2023-02-12T02:42:15;45.90;;;30.73;;
2161;SDS011;1087;50.226;8.682;2023-02-12T02:47:16;43.93;;;30.30;;
2161;SDS011;1087;50.226;8.682;2023-02-12T02:49:46;45.83;;;31.70;;
2161;SDS011;1087;50.226;8.682;2023-02-12T02:52:29;43.43;;;30.37;;
2161;SDS011;1087;50.226;8.682;2023-02-12T02:55:02;40.40;;;27.47;;
2161;SDS011;1087;50.226;8.682;2023-02-12T02:57:35;43.67;;;27.77;;
2161;SDS011;1087;50.226;8.682;2023-02-12T03:02:36;47.63;;;29.90;;
2161;SDS011;1087;50.226;8.682;2023-02-12T03:07:37;41.33;;;29.97;;
2161;SDS011;1087;50.226;8.682;2023-02-12T03:10:21;43.63;;;28.30;;
2161;SDS011;1087;50.226;8.682;2023-02-12T03:13:02;40.60;;;28.13;;
2161;SDS011;1087;50.226;8.682;2023-02-12T03:15:37;45.13;;;30.20;;
2161;SDS011;1087;50.226;8.682;2023-02-12T03:18:08;45.40;;;31.33;;
2161;SDS011;1087;50.226;8.682;2023-02-12T03:20:42;43.20;;;30.03;;
2161;SDS011;1087;50.226;8.682;2023-02-12T03:23:16;38.37;;;28.60;;
2161;SDS011;1087;50.226;8.682;2023-02-12T03:25:51;43.00;;;31.37;;
2161;SDS011;1087;50.226;8.682;2023-02-12T03:28:29;41.93;;;30.17;;
2161;SDS011;1087;50.226;8.682;2023-02-12T03:31:11;42.70;;;29.67;;
2161;SDS011;1087;50.226;8.682;2023-02-12T03:33:52;39.30;;;29.33;;
2161;SDS011;1087;50.226;8.682;2023-02-12T03:36:25;40.50;;;28.50;;
2161;SDS011;1087;50.226;8.682;2023-02-12T03:39:24;36.23;;;27.33;;
2161;SDS011;1087;50.226;8.682;2023-02-12T03:42:09;39.47;;;29.13;;
2161;SDS011;1087;50.226;8.682;2023-02-12T03:44:47;39.90;;;27.47;;
2161;SDS011;1087;50.226;8.682;2023-02-12T03:50:14;40.03;;;29.23;;
2161;SDS011;1087;50.226;8.682;2023-02-12T03:52:53;47.17;;;32.80;;
2161;SDS011;1087;50.226;8.682;2023-02-12T03:55:18;42.50;;;32.60;;
2161;SDS011;1087;50.226;8.682;2023-02-12T03:57:45;39.70;;;28.53;;
2161;SDS011;1087;50.226;8.682;2023-02-12T04:00:17;40.90;;;30.13;;
2161;SDS011;1087;50.226;8.682;2023-02-12T04:02:44;43.27;;;30.10;;
2161;SDS011;1087;50.226;8.682;2023-02-12T04:05:21;40.63;;;27.97;;
2161;SDS011;1087;50.226;8.682;2023-02-12T04:07:49;42.43;;;31.00;;
2161;SDS011;1087;50.226;8.682;2023-02-12T04:10:16;39.60;;;29.00;;
2161;SDS011;1087;50.226;8.682;2023-02-12T04:12:48;38.90;;;27.30;;
2161;SDS011;1087;50.226;8.682;2023-02-12T04:28:39;40.30;;;28.50;;
2161;SDS011;1087;50.226;8.682;2023-02-12T04:31:47;38.40;;;26.50;;
2161;SDS011;1087;50.226;8.682;2023-02-12T04:34:37;37.07;;;27.87;;
2161;SDS011;1087;50.226;8.682;2023-02-12T04:37:17;36.80;;;26.73;;
2161;SDS011;1087;50.226;8.682;2023-02-12T04:39:46;40.27;;;27.70;;
2161;SDS011;1087;50.226;8.682;2023-02-12T04:42:13;38.10;;;28.23;;
2161;SDS011;1087;50.226;8.682;2023-02-12T04:44:40;41.90;;;29.70;;
2161;SDS011;1087;50.226;8.682;2023-02-12T04:47:07;38.47;;;27.03;;
2161;SDS011;1087;50.226;8.682;2023-02-12T04:49:35;38.73;;;29.03;;
2161;SDS011;1087;50.226;8.682;2023-02-12T04:52:00;42.40;;;30.27;;
2161;SDS011;1087;50.226;8.682;2023-02-12T04:54:26;40.50;;;29.13;;
2161;SDS011;1087;50.226;8.682;2023-02-12T04:56:51;41.70;;;28.10;;
2161;SDS011;1087;50.226;8.682;2023-02-12T04:59:17;36.57;;;28.80;;
2161;SDS011;1087;50.226;8.682;2023-02-12T05:01:42;41.77;;;28.13;;
2161;SDS011;1087;50.226;8.682;2023-02-12T05:04:10;38.70;;;29.73;;
2161;SDS011;1087;50.226;8.682;2023-02-12T05:06:38;38.03;;;29.40;;
2161;SDS011;1087;50.226;8.682;2023-02-12T05:09:04;38.23;;;28.80;;
2161;SDS011;1087;50.226;8.682;2023-02-12T05:11:30;38.70;;;27.50;;
2161;SDS011;1087;50.226;8.682;2023-02-12T05:13:56;35.87;;;27.80;;
2161;SDS011;1087;50.226;8.682;2023-02-12T05:16:22;38.60;;;27.63;;
2161;SDS011;1087;50.226;8.682;2023-02-12T05:18:48;37.43;;;28.57;;
2161;SDS011;1087;50.226;8.682;2023-02-12T05:21:13;34.80;;;26.90;;
2161;SDS011;1087;50.226;8.682;2023-02-12T05:23:40;37.63;;;27.40;;
2161;SDS011;1087;50.226;8.682;2023-02-12T05:26:07;36.17;;;28.60;;
2161;SDS011;1087;50.226;8.682;2023-02-12T05:28:36;37.57;;;25.63;;
2161;SDS011;1087;50.226;8.682;2023-02-12T05:31:03;39.27;;;29.77;;
2161;SDS011;1087;50.226;8.682;2023-02-12T05:33:30;39.00;;;29.07;;
2161;SDS011;1087;50.226;8.682;2023-02-12T05:36:02;40.20;;;28.50;;
2161;SDS011;1087;50.226;8.682;2023-02-12T05:38:31;39.07;;;26.40;;
2161;SDS011;1087;50.226;8.682;2023-02-12T05:41:10;38.43;;;27.63;;
2161;SDS011;1087;50.226;8.682;2023-02-12T05:43:38;37.73;;;27.77;;
2161;SDS011;1087;50.226;8.682;2023-02-12T05:46:04;37.03;;;27.60;;
2161;SDS011;1087;50.226;8.682;2023-02-12T05:48:31;38.07;;;27.83;;
2161;SDS011;1087;50.226;8.682;2023-02-12T05:51:01;38.40;;;28.57;;
2161;SDS011;1087;50.226;8.682;2023-02-12T05:53:31;39.13;;;28.00;;
2161;SDS011;1087;50.226;8.682;2023-02-12T05:56:07;37.90;;;27.33;;
2161;SDS011;1087;50.226;8.682;2023-02-12T05:58:33;35.33;;;29.00;;
2161;SDS011;1087;50.226;8.682;2023-02-12T06:00:59;37.90;;;29.70;;
2161;SDS011;1087;50.226;8.682;2023-02-12T06:03:25;39.50;;;29.23;;
2161;SDS011;1087;50.226;8.682;2023-02-12T06:05:51;36.33;;;28.27;;
2161;SDS011;1087;50.226;8.682;2023-02-12T06:08:17;42.30;;;29.73;;
2161;SDS011;1087;50.226;8.682;2023-02-12T06:10:42;43.70;;;29.77;;
2161;SDS011;1087;50.226;8.682;2023-02-12T06:13:08;41.20;;;28.47;;
2161;SDS011;1087;50.226;8.682;2023-02-12T06:15:37;40.60;;;27.27;;
2161;SDS011;1087;50.226;8.682;2023-02-12T06:18:02;44.40;;;30.40;;
2161;SDS011;1087;50.226;8.682;2023-02-12T06:20:28;42.40;;;28.33;;
2161;SDS011;1087;50.226;8.682;2023-02-12T06:22:54;38.57;;;27.93;;
2161;SDS011;1087;50.226;8.682;2023-02-12T06:25:19;38.57;;;28.47;;
2161;SDS011;1087;50.226;8.682;2023-02-12T06:27:45;40.73;;;29.23;;
2161;SDS011;1087;50.226;8.682;2023-02-12T06:30:11;43.10;;;28.77;;
2161;SDS011;1087;50.226;8.682;2023-02-12T06:32:37;40.43;;;28.17;;
2161;SDS011;1087;50.226;8.682;2023-02-12T06:35:02;41.30;;;28.97;;
2161;SDS011;1087;50.226;8.682;2023-02-12T06:37:28;39.97;;;28.57;;
2161;SDS011;1087;50.226;8.682;2023-02-12T06:39:53;46.83;;;30.63;;
2161;SDS011;1087;50.226;8.682;2023-02-12T06:42:19;46.07;;;29.93;;
2161;SDS011;1087;50.226;8.682;2023-02-12T06:44:44;41.60;;;30.03;;
2161;SDS011;1087;50.226;8.682;2023-02-12T06:47:11;43.70;;;29.67;;
2161;SDS011;1087;50.226;8.682;2023-02-12T06:49:37;41.60;;;27.17;;
2161;SDS011;1087;50.226;8.682;2023-02-12T06:52:02;39.90;;;28.23;;
2161;SDS011;1087;50.226;8.682;2023-02-12T06:54:28;42.43;;;28.30;;
2161;SDS011;1087;50.226;8.682;2023-02-12T06:56:53;46.20;;;29.70;;
2161;SDS011;1087;50.226;8.682;2023-02-12T06:59:19;41.60;;;29.87;;
2161;SDS011;1087;50.226;8.682;2023-02-12T07:01:45;48.47;;;30.60;;
2161;SDS011;1087;50.226;8.682;2023-02-12T07:04:10;41.13;;;31.20;;
2161;SDS011;1087;50.226;8.682;2023-02-12T07:06:36;46.97;;;31.63;;
2161;SDS011;1087;50.226;8.682;2023-02-12T07:09:02;47.47;;;33.60;;
2161;SDS011;1087;50.226;8.682;2023-02-12T07:11:33;43.43;;;31.17;;
2161;SDS011;1087;50.226;8.682;2023-02-12T07:13:59;45.17;;;30.10;;
2161;SDS011;1087;50.226;8.682;2023-02-12T07:16:25;44.67;;;30.90;;
2161;SDS011;1087;50.226;8.682;2023-02-12T07:18:51;46.20;;;32.10;;
2161;SDS011;1087;50.226;8.682;2023-02-12T07:21:17;44.37;;;30.00;;
2161;SDS011;1087;50.226;8.682;2023-02-12T07:23:47;42.83;;;28.00;;
2161;SDS011;1087;50.226;8.682;2023-02-12T07:26:14;41.57;;;28.70;;
2161;SDS011;1087;50.226;8.682;2023-02-12T07:28:40;45.87;;;29.10;;
2161;SDS011;1087;50.226;8.682;2023-02-12T07:33:32;36.20;;;28.80;;
2161;SDS011;1087;50.226;8.682;2023-02-12T07:35:59;42.73;;;28.97;;
2161;SDS011;1087;50.226;8.682;2023-02-12T07:38:25;43.07;;;28.47;;
2161;SDS011;1087;50.226;8.682;2023-02-12T07:40:50;44.80;;;30.10;;
2161;SDS011;1087;50.226;8.682;2023-02-12T07:43:16;47.10;;;30.03;;
2161;SDS011;1087;50.226;8.682;2023-02-12T07:45:41;43.87;;;31.20;;
2161;SDS011;1087;50.226;8.682;2023-02-12T07:48:07;43.87;;;31.03;;
2161;SDS011;1087;50.226;8.682;2023-02-12T07:50:32;43.90;;;30.77;;
2161;SDS011;1087;50.226;8.682;2023-02-12T07:52:58;40.50;;;30.30;;
2161;SDS011;1087;50.226;8.682;2023-02-12T07:55:23;45.77;;;32.83;;
2161;SDS011;1087;50.226;8.682;2023-02-12T07:57:49;44.67;;;31.17;;
2161;SDS011;1087;50.226;8.682;2023-02-12T08:00:15;44.17;;;32.57;;
2161;SDS011;1087;50.226;8.682;2023-02-12T08:02:41;44.17;;;29.83;;
2161;SDS011;1087;50.226;8.682;2023-02-12T08:05:06;48.90;;;34.33;;
2161;SDS011;1087;50.226;8.682;2023-02-12T08:07:32;48.57;;;35.43;;
2161;SDS011;1087;50.226;8.682;2023-02-12T08:09:57;42.27;;;30.27;;
2161;SDS011;1087;50.226;8.682;2023-02-12T08:12:23;45.20;;;32.13;;
2161;SDS011;1087;50.226;8.682;2023-02-12T08:14:48;47.97;;;32.20;;
2161;SDS011;1087;50.226;8.682;2023-02-12T08:17:14;50.47;;;33.63;;
2161;SDS011;1087;50.226;8.682;2023-02-12T08:19:40;43.10;;;31.17;;
2161;SDS011;1087;50.226;8.682;2023-02-12T08:22:05;44.40;;;32.07;;
2161;SDS011;1087;50.226;8.682;2023-02-12T08:24:31;48.63;;;32.40;;
2161;SDS011;1087;50.226;8.682;2023-02-12T08:26:57;45.00;;;30.27;;
2161;SDS011;1087;50.226;8.682;2023-02-12T08:29:27;45.47;;;31.70;;
2161;SDS011;1087;50.226;8.682;2023-02-12T08:31:55;53.43;;;32.90;;
2161;SDS011;1087;50.226;8.682;2023-02-12T08:34:26;52.07;;;34.40;;
2161;SDS011;1087;50.226;8.682;2023-02-12T08:36:56;44.20;;;31.70;;
2161;SDS011;1087;50.226;8.682;2023-02-12T08:39:23;52.63;;;31.07;;
2161;SDS011;1087;50.226;8.682;2023-02-12T08:41:52;43.27;;;32.53;;
2161;SDS011;1087;50.226;8.682;2023-02-12T08:44:19;48.37;;;34.33;;
2161;SDS011;1087;50.226;8.682;2023-02-12T08:46:48;41.47;;;30.93;;
2161;SDS011;1087;50.226;8.682;2023-02-12T08:49:16;40.93;;;30.93;;
2161;SDS011;1087;50.226;8.682;2023-02-12T08:51:45;56.13;;;38.00;;
2161;SDS011;1087;50.226;8.682;2023-02-12T08:54:13;55.57;;;35.70;;
2161;SDS011;1087;50.226;8.682;2023-02-12T08:56:41;47.33;;;34.20;;
2161;SDS011;1087;50.226;8.682;2023-02-12T08:59:09;49.67;;;35.40;;
2161;SDS011;1087;50.226;8.682;2023-02-12T09:01:35;50.07;;;36.90;;
2161;SDS011;1087;50.226;8.682;2023-02-12T09:04:09;49.50;;;35.80;;
2161;SDS011;1087;50.226;8.682;2023-02-12T09:06:39;48.40;;;35.20;;
2161;SDS011;1087;50.226;8.682;2023-02-12T09:09:05;59.40;;;38.63;;
2161;SDS011;1087;50.226;8.682;2023-02-12T09:11:32;55.63;;;34.80;;
2161;SDS011;1087;50.226;8.682;2023-02-12T09:13:59;60.73;;;37.80;;
2161;SDS011;1087;50.226;8.682;2023-02-12T09:16:26;51.47;;;34.67;;
2161;SDS011;1087;50.226;8.682;2023-02-12T09:18:53;65.67;;;38.13;;
2161;SDS011;1087;50.226;8.682;2023-02-12T09:21:19;65.80;;;37.30;;
2161;SDS011;1087;50.226;8.682;2023-02-12T09:23:45;64.93;;;39.07;;
2161;SDS011;1087;50.226;8.682;2023-02-12T09:26:12;65.63;;;39.50;;
2161;SDS011;1087;50.226;8.682;2023-02-12T09:28:39;72.73;;;43.70;;
2161;SDS011;1087;50.226;8.682;2023-02-12T09:31:07;63.63;;;41.17;;
2161;SDS011;1087;50.226;8.682;2023-02-12T09:33:33;71.20;;;40.43;;
2161;SDS011;1087;50.226;8.682;2023-02-12T09:36:00;73.13;;;41.33;;
2161;SDS011;1087;50.226;8.682;2023-02-12T09:38:27;72.43;;;40.27;;
2161;SDS011;1087;50.226;8.682;2023-02-12T09:46:07;72.17;;;40.23;;
2161;SDS011;1087;50.226;8.682;2023-02-12T09:51:19;75.70;;;41.00;;
2161;SDS011;1087;50.226;8.682;2023-02-12T09:53:46;63.90;;;37.80;;
2161;SDS011;1087;50.226;8.682;2023-02-12T09:56:18;83.87;;;41.87;;
2161;SDS011;1087;50.226;8.682;2023-02-12T09:58:54;75.33;;;41.37;;
2161;SDS011;1087;50.226;8.682;2023-02-12T10:01:25;78.97;;;40.60;;
2161;SDS011;1087;50.226;8.682;2023-02-12T10:03:51;73.50;;;41.10;;
2161;SDS011;1087;50.226;8.682;2023-02-12T10:06:27;75.73;;;41.40;;
2161;SDS011;1087;50.226;8.682;2023-02-12T10:08:58;73.47;;;41.33;;
2161;SDS011;1087;50.226;8.682;2023-02-12T10:22:30;72.67;;;39.93;;
2161;SDS011;1087;50.226;8.682;2023-02-12T10:25:08;70.33;;;38.23;;
2161;SDS011;1087;50.226;8.682;2023-02-12T10:27:51;63.50;;;35.80;;
2161;SDS011;1087;50.226;8.682;2023-02-12T10:30:20;58.07;;;35.67;;
2161;SDS011;1087;50.226;8.682;2023-02-12T10:32:50;66.80;;;40.30;;
2161;SDS011;1087;50.226;8.682;2023-02-12T10:35:22;62.90;;;40.80;;
2161;SDS011;1087;50.226;8.682;2023-02-12T10:40:23;69.77;;;37.10;;
2161;SDS011;1087;50.226;8.682;2023-02-12T10:42:54;72.67;;;42.63;;
2161;SDS011;1087;50.226;8.682;2023-02-12T10:45:32;67.57;;;39.87;;
2161;SDS011;1087;50.226;8.682;2023-02-12T10:48:04;68.27;;;39.40;;
2161;SDS011;1087;50.226;8.682;2023-02-12T10:50:46;65.37;;;40.30;;
2161;SDS011;1087;50.226;8.682;2023-02-12T10:53:38;60.30;;;37.27;;
2161;SDS011;1087;50.226;8.682;2023-02-12T10:58:51;60.77;;;33.83;;
2161;SDS011;1087;50.226;8.682;2023-02-12T11:01:21;69.50;;;38.30;;
2161;SDS011;1087;50.226;8.682;2023-02-12T11:03:53;72.97;;;40.00;;
2161;SDS011;1087;50.226;8.682;2023-02-12T11:06:24;57.47;;;36.10;;
2161;SDS011;1087;50.226;8.682;2023-02-12T11:08:54;75.73;;;39.90;;
2161;SDS011;1087;50.226;8.682;2023-02-12T11:13:56;71.77;;;38.27;;
2161;SDS011;1087;50.226;8.682;2023-02-12T11:16:28;66.97;;;36.77;;
2161;SDS011;1087;50.226;8.682;2023-02-12T11:19:05;69.50;;;34.43;;
2161;SDS011;1087;50.226;8.682;2023-02-12T11:21:33;67.10;;;38.17;;
2161;SDS011;1087;50.226;8.682;2023-02-12T11:24:42;67.93;;;36.50;;
2161;SDS011;1087;50.226;8.682;2023-02-12T11:27:12;68.43;;;33.30;;
2161;SDS011;1087;50.226;8.682;2023-02-12T11:29:46;60.37;;;34.80;;
2161;SDS011;1087;50.226;8.682;2023-02-12T11:32:34;58.63;;;32.40;;
2161;SDS011;1087;50.226;8.682;2023-02-12T11:37:42;65.67;;;35.60;;
2161;SDS011;1087;50.226;8.682;2023-02-12T11:40:14;60.63;;;31.60;;
2161;SDS011;1087;50.226;8.682;2023-02-12T11:42:50;54.63;;;30.93;;
2161;SDS011;1087;50.226;8.682;2023-02-12T11:45:20;60.13;;;32.77;;
2161;SDS011;1087;50.226;8.682;2023-02-12T11:47:49;61.47;;;32.23;;
2161;SDS011;1087;50.226;8.682;2023-02-12T11:50:28;56.03;;;32.53;;
2161;SDS011;1087;50.226;8.682;2023-02-12T11:52:57;54.00;;;31.33;;
2161;SDS011;1087;50.226;8.682;2023-02-12T11:55:27;57.07;;;32.73;;
2161;SDS011;1087;50.226;8.682;2023-02-12T11:58:02;51.20;;;30.17;;
2161;SDS011;1087;50.226;8.682;2023-02-12T12:00:38;50.93;;;29.43;;
2161;SDS011;1087;50.226;8.682;2023-02-12T12:03:22;50.03;;;28.83;;
2161;SDS011;1087;50.226;8.682;2023-02-12T12:05:53;49.63;;;28.23;;
2161;SDS011;1087;50.226;8.682;2023-02-12T12:08:26;47.67;;;27.83;;
2161;SDS011;1087;50.226;8.682;2023-02-12T12:10:58;52.10;;;29.53;;
2161;SDS011;1087;50.226;8.682;2023-02-12T12:13:41;48.50;;;26.53;;
2161;SDS011;1087;50.226;8.682;2023-02-12T12:16:19;47.03;;;27.60;;
2161;SDS011;1087;50.226;8.682;2023-02-12T12:19:21;78.20;;;46.70;;
2161;SDS011;1087;50.226;8.682;2023-02-12T12:30:58;58.77;;;30.67;;
2161;SDS011;1087;50.226;8.682;2023-02-12T12:33:45;49.37;;;31.07;;
2161;SDS011;1087;50.226;8.682;2023-02-12T12:46:49;49.40;;;27.03;;
2161;SDS011;1087;50.226;8.682;2023-02-12T12:49:31;46.50;;;29.93;;
2161;SDS011;1087;50.226;8.682;2023-02-12T12:52:26;44.20;;;29.63;;
2161;SDS011;1087;50.226;8.682;2023-02-12T12:55:16;49.67;;;28.10;;
2161;SDS011;1087;50.226;8.682;2023-02-12T13:10:59;37.03;;;24.30;;
2161;SDS011;1087;50.226;8.682;2023-02-12T13:13:45;41.33;;;24.80;;
2161;SDS011;1087;50.226;8.682;2023-02-12T13:27:46;36.03;;;22.90;;
2161;SDS011;1087;50.226;8.682;2023-02-12T13:30:16;32.83;;;22.50;;
2161;SDS011;1087;50.226;8.682;2023-02-12T13:32:45;33.00;;;21.93;;
2161;SDS011;1087;50.226;8.682;2023-02-12T13:35:20;39.77;;;24.53;;
2161;SDS011;1087;50.226;8.682;2023-02-12T13:37:53;37.13;;;21.57;;
2161;SDS011;1087;50.226;8.682;2023-02-12T13:40:21;35.37;;;21.10;;
2161;SDS011;1087;50.226;8.682;2023-02-12T13:45:33;34.03;;;21.30;;
2161;SDS011;1087;50.226;8.682;2023-02-12T13:48:17;32.17;;;20.57;;
2161;SDS011;1087;50.226;8.682;2023-02-12T13:53:58;31.80;;;20.87;;
2161;SDS011;1087;50.226;8.682;2023-02-12T14:02:04;30.60;;;22.03;;
2161;SDS011;1087;50.226;8.682;2023-02-12T14:04:56;23.87;;;16.90;;
2161;SDS011;1087;50.226;8.682;2023-02-12T14:07:44;26.30;;;18.93;;
2161;SDS011;1087;50.226;8.682;2023-02-12T14:10:26;23.90;;;16.40;;
2161;SDS011;1087;50.226;8.682;2023-02-12T14:13:19;31.87;;;19.53;;
2161;SDS011;1087;50.226;8.682;2023-02-12T14:15:49;31.17;;;21.23;;
2161;SDS011;1087;50.226;8.682;2023-02-12T14:18:32;29.63;;;20.40;;
2161;SDS011;1087;50.226;8.682;2023-02-12T14:23:41;34.53;;;22.37;;
2161;SDS011;1087;50.226;8.682;2023-02-12T14:26:11;26.93;;;20.07;;
2161;SDS011;1087;50.226;8.682;2023-02-12T14:28:53;25.23;;;19.10;;
2161;SDS011;1087;50.226;8.682;2023-02-12T14:41:31;24.33;;;15.40;;
2161;SDS011;1087;50.226;8.682;2023-02-12T14:46:56;17.40;;;13.50;;
2161;SDS011;1087;50.226;8.682;2023-02-12T14:54:47;21.37;;;15.47;;
2161;SDS011;1087;50.226;8.682;2023-02-12T14:57:35;17.33;;;12.17;;
2161;SDS011;1087;50.226;8.682;2023-02-12T15:02:47;15.10;;;11.00;;
2161;SDS011;1087;50.226;8.682;2023-02-12T15:07:59;20.43;;;13.90;;
2161;SDS011;1087;50.226;8.682;2023-02-12T15:10:48;13.67;;;11.17;;
2161;SDS011;1087;50.226;8.682;2023-02-12T15:15:48;13.00;;;10.30;;
2161;SDS011;1087;50.226;8.682;2023-02-12T15:21:31;12.20;;;9.87;;
2161;SDS011;1087;50.226;8.682;2023-02-12T15:23:59;15.50;;;11.10;;
2161;SDS011;1087;50.226;8.682;2023-02-12T15:26:41;19.83;;;12.10;;
2161;SDS011;1087;50.226;8.682;2023-02-12T15:29:18;19.63;;;13.10;;
2161;SDS011;1087;50.226;8.682;2023-02-12T15:32:05;19.73;;;12.27;;
2161;SDS011;1087;50.226;8.682;2023-02-12T15:34:35;21.40;;;13.17;;
2161;SDS011;1087;50.226;8.682;2023-02-12T15:37:04;22.13;;;13.97;;
2161;SDS011;1087;50.226;8.682;2023-02-12T15:39:34;25.20;;;15.57;;
2161;SDS011;1087;50.226;8.682;2023-02-12T15:42:27;23.03;;;14.50;;
2161;SDS011;1087;50.226;8.682;2023-02-12T15:47:39;18.70;;;13.17;;
2161;SDS011;1087;50.226;8.682;2023-02-12T15:50:06;25.80;;;15.20;;
2161;SDS011;1087;50.226;8.682;2023-02-12T15:52:37;23.07;;;15.03;;
2161;SDS011;1087;50.226;8.682;2023-02-12T15:55:05;25.10;;;16.17;;
2161;SDS011;1087;50.226;8.682;2023-02-12T15:57:36;25.70;;;15.10;;
2161;SDS011;1087;50.226;8.682;2023-02-12T16:00:06;26.07;;;16.00;;
2161;SDS011;1087;50.226;8.682;2023-02-12T16:02:35;23.87;;;14.67;;
2161;SDS011;1087;50.226;8.682;2023-02-12T16:05:01;26.13;;;15.50;;
2161;SDS011;1087;50.226;8.682;2023-02-12T16:07:30;30.17;;;18.03;;
2161;SDS011;1087;50.226;8.682;2023-02-12T16:09:59;23.37;;;14.90;;
2161;SDS011;1087;50.226;8.682;2023-02-12T16:12:27;21.70;;;13.33;;
2161;SDS011;1087;50.226;8.682;2023-02-12T16:14:57;22.30;;;14.27;;
2161;SDS011;1087;50.226;8.682;2023-02-12T16:17:28;29.40;;;14.67;;
2161;SDS011;1087;50.226;8.682;2023-02-12T16:20:18;22.60;;;12.57;;
2161;SDS011;1087;50.226;8.682;2023-02-12T16:22:47;22.80;;;12.50;;
2161;SDS011;1087;50.226;8.682;2023-02-12T16:25:16;20.40;;;12.47;;
2161;SDS011;1087;50.226;8.682;2023-02-12T16:27:52;22.70;;;13.77;;
2161;SDS011;1087;50.226;8.682;2023-02-12T16:30:30;23.00;;;15.60;;
2161;SDS011;1087;50.226;8.682;2023-02-12T16:33:03;21.67;;;15.67;;
2161;SDS011;1087;50.226;8.682;2023-02-12T16:35:30;24.43;;;17.30;;
2161;SDS011;1087;50.226;8.682;2023-02-12T16:38:02;28.07;;;16.87;;
2161;SDS011;1087;50.226;8.682;2023-02-12T16:41:13;24.63;;;15.07;;
2161;SDS011;1087;50.226;8.682;2023-02-12T16:43:48;22.97;;;14.47;;
2161;SDS011;1087;50.226;8.682;2023-02-12T16:46:43;25.63;;;16.57;;
2161;SDS011;1087;50.226;8.682;2023-02-12T16:49:14;24.80;;;14.90;;
2161;SDS011;1087;50.226;8.682;2023-02-12T16:51:42;19.80;;;14.60;;
2161;SDS011;1087;50.226;8.682;2023-02-12T16:56:57;29.37;;;20.20;;
2161;SDS011;1087;50.226;8.682;2023-02-12T16:59:24;23.87;;;16.57;;
2161;SDS011;1087;50.226;8.682;2023-02-12T17:01:57;29.03;;;17.90;;
2161;SDS011;1087;50.226;8.682;2023-02-12T17:04:28;27.83;;;18.93;;
2161;SDS011;1087;50.226;8.682;2023-02-12T17:06:54;26.13;;;17.80;;
2161;SDS011;1087;50.226;8.682;2023-02-12T17:09:20;22.10;;;16.83;;
2161;SDS011;1087;50.226;8.682;2023-02-12T17:11:48;21.37;;;17.37;;
2161;SDS011;1087;50.226;8.682;2023-02-12T17:14:15;25.90;;;17.90;;
2161;SDS011;1087;50.226;8.682;2023-02-12T17:16:41;27.00;;;17.07;;
2161;SDS011;1087;50.226;8.682;2023-02-12T17:19:07;25.87;;;17.03;;
2161;SDS011;1087;50.226;8.682;2023-02-12T17:21:34;26.37;;;17.93;;
2161;SDS011;1087;50.226;8.682;2023-02-12T17:24:12;25.00;;;17.20;;
2161;SDS011;1087;50.226;8.682;2023-02-12T17:26:41;27.73;;;18.77;;
2161;SDS011;1087;50.226;8.682;2023-02-12T17:29:07;27.00;;;19.40;;
2161;SDS011;1087;50.226;8.682;2023-02-12T17:31:33;23.00;;;15.90;;
2161;SDS011;1087;50.226;8.682;2023-02-12T17:33:59;26.73;;;15.80;;
2161;SDS011;1087;50.226;8.682;2023-02-12T17:36:25;21.47;;;14.67;;
2161;SDS011;1087;50.226;8.682;2023-02-12T17:38:50;20.40;;;15.27;;
2161;SDS011;1087;50.226;8.682;2023-02-12T17:41:16;22.70;;;14.37;;
2161;SDS011;1087;50.226;8.682;2023-02-12T17:43:42;17.30;;;12.97;;
2161;SDS011;1087;50.226;8.682;2023-02-12T17:46:11;19.57;;;12.07;;
2161;SDS011;1087;50.226;8.682;2023-02-12T17:48:41;18.40;;;13.33;;
2161;SDS011;1087;50.226;8.682;2023-02-12T17:51:08;26.30;;;17.93;;
2161;SDS011;1087;50.226;8.682;2023-02-12T17:53:35;19.00;;;14.37;;